sensor_id;sensor_type;location;lat;lon;timestamp;P1;durP1;ratioP1;P2;durP2;ratioP2
42168;SDS011;27838;43.858;25.974;2023-07-20T00:01:50;59.88;;;7.43;;
42168;SDS011;27838;43.858;25.974;2023-07-20T00:04:19;63.78;;;8.48;;
42168;SDS011;27838;43.858;25.974;2023-07-20T00:06:46;46.72;;;7.65;;
42168;SDS011;27838;43.858;25.974;2023-07-20T00:09:12;45.40;;;5.53;;
42168;SDS011;27838;43.858;25.974;2023-07-20T00:11:39;31.45;;;5.38;;
42168;SDS011;27838;43.858;25.974;2023-07-20T00:14:06;29.67;;;4.82;;
42168;SDS011;27838;43.858;25.974;2023-07-20T00:16:33;26.30;;;4.85;;
42168;SDS011;27838;43.858;25.974;2023-07-20T00:18:59;23.85;;;6.20;;
42168;SDS011;27838;43.858;25.974;2023-07-20T00:21:26;42.67;;;5.63;;
42168;SDS011;27838;43.858;25.974;2023-07-20T00:23:52;25.58;;;5.88;;
42168;SDS011;27838;43.858;25.974;2023-07-20T00:26:19;24.98;;;5.57;;
42168;SDS011;27838;43.858;25.974;2023-07-20T00:28:45;32.53;;;5.93;;
42168;SDS011;27838;43.858;25.974;2023-07-20T00:31:12;20.42;;;6.32;;
42168;SDS011;27838;43.858;25.974;2023-07-20T00:33:38;31.65;;;6.32;;
42168;SDS011;27838;43.858;25.974;2023-07-20T00:36:05;31.20;;;6.63;;
42168;SDS011;27838;43.858;25.974;2023-07-20T00:38:32;19.13;;;6.50;;
42168;SDS011;27838;43.858;25.974;2023-07-20T00:40:58;29.77;;;6.30;;
42168;SDS011;27838;43.858;25.974;2023-07-20T00:43:25;20.25;;;6.00;;
42168;SDS011;27838;43.858;25.974;2023-07-20T00:45:51;17.38;;;5.65;;
42168;SDS011;27838;43.858;25.974;2023-07-20T00:48:18;19.40;;;6.80;;
42168;SDS011;27838;43.858;25.974;2023-07-20T00:50:45;17.17;;;5.97;;
42168;SDS011;27838;43.858;25.974;2023-07-20T00:53:13;14.98;;;5.47;;
42168;SDS011;27838;43.858;25.974;2023-07-20T00:55:40;23.63;;;5.88;;
42168;SDS011;27838;43.858;25.974;2023-07-20T00:58:06;24.50;;;6.18;;
42168;SDS011;27838;43.858;25.974;2023-07-20T01:00:34;19.63;;;5.30;;
42168;SDS011;27838;43.858;25.974;2023-07-20T01:03:00;16.92;;;5.13;;
42168;SDS011;27838;43.858;25.974;2023-07-20T01:05:39;19.38;;;5.10;;
42168;SDS011;27838;43.858;25.974;2023-07-20T01:08:12;21.52;;;4.85;;
42168;SDS011;27838;43.858;25.974;2023-07-20T01:10:51;16.77;;;4.50;;
42168;SDS011;27838;43.858;25.974;2023-07-20T01:13:23;21.55;;;4.88;;
42168;SDS011;27838;43.858;25.974;2023-07-20T01:16:00;14.57;;;4.78;;
42168;SDS011;27838;43.858;25.974;2023-07-20T01:18:27;16.20;;;5.15;;
42168;SDS011;27838;43.858;25.974;2023-07-20T01:20:55;16.10;;;4.90;;
42168;SDS011;27838;43.858;25.974;2023-07-20T01:23:37;14.75;;;4.13;;
42168;SDS011;27838;43.858;25.974;2023-07-20T01:26:34;17.63;;;4.70;;
42168;SDS011;27838;43.858;25.974;2023-07-20T01:31:48;15.43;;;4.63;;
42168;SDS011;27838;43.858;25.974;2023-07-20T01:34:19;29.92;;;4.50;;
42168;SDS011;27838;43.858;25.974;2023-07-20T01:36:48;21.08;;;4.28;;
42168;SDS011;27838;43.858;25.974;2023-07-20T01:39:16;17.60;;;4.78;;
42168;SDS011;27838;43.858;25.974;2023-07-20T01:41:44;23.42;;;4.15;;
42168;SDS011;27838;43.858;25.974;2023-07-20T01:44:12;18.25;;;4.38;;
42168;SDS011;27838;43.858;25.974;2023-07-20T01:46:39;15.70;;;4.10;;
42168;SDS011;27838;43.858;25.974;2023-07-20T01:49:05;20.88;;;4.70;;
42168;SDS011;27838;43.858;25.974;2023-07-20T01:51:32;16.88;;;4.00;;
42168;SDS011;27838;43.858;25.974;2023-07-20T01:53:58;16.13;;;4.20;;
42168;SDS011;27838;43.858;25.974;2023-07-20T01:56:25;14.68;;;4.20;;
42168;SDS011;27838;43.858;25.974;2023-07-20T01:58:52;10.88;;;3.63;;
42168;SDS011;27838;43.858;25.974;2023-07-20T02:01:19;18.15;;;4.47;;
42168;SDS011;27838;43.858;25.974;2023-07-20T02:03:45;15.13;;;4.05;;
42168;SDS011;27838;43.858;25.974;2023-07-20T02:06:11;17.30;;;4.13;;
42168;SDS011;27838;43.858;25.974;2023-07-20T02:08:38;17.83;;;4.10;;
42168;SDS011;27838;43.858;25.974;2023-07-20T02:11:04;13.82;;;3.83;;
42168;SDS011;27838;43.858;25.974;2023-07-20T02:13:31;15.77;;;4.15;;
42168;SDS011;27838;43.858;25.974;2023-07-20T02:15:58;25.30;;;5.60;;
42168;SDS011;27838;43.858;25.974;2023-07-20T02:18:24;18.85;;;3.90;;
42168;SDS011;27838;43.858;25.974;2023-07-20T02:20:52;20.58;;;3.90;;
42168;SDS011;27838;43.858;25.974;2023-07-20T02:23:19;14.32;;;4.03;;
42168;SDS011;27838;43.858;25.974;2023-07-20T02:25:46;12.60;;;3.50;;
42168;SDS011;27838;43.858;25.974;2023-07-20T02:28:13;13.82;;;3.45;;
42168;SDS011;27838;43.858;25.974;2023-07-20T02:30:40;17.25;;;3.35;;
42168;SDS011;27838;43.858;25.974;2023-07-20T02:33:07;13.75;;;3.53;;
42168;SDS011;27838;43.858;25.974;2023-07-20T02:35:33;10.98;;;3.90;;
42168;SDS011;27838;43.858;25.974;2023-07-20T02:38:00;10.80;;;3.03;;
42168;SDS011;27838;43.858;25.974;2023-07-20T02:40:27;14.63;;;3.78;;
42168;SDS011;27838;43.858;25.974;2023-07-20T02:42:53;12.10;;;4.15;;
42168;SDS011;27838;43.858;25.974;2023-07-20T02:45:20;14.10;;;3.30;;
42168;SDS011;27838;43.858;25.974;2023-07-20T02:47:46;8.73;;;3.25;;
42168;SDS011;27838;43.858;25.974;2023-07-20T02:50:13;10.75;;;4.00;;
42168;SDS011;27838;43.858;25.974;2023-07-20T02:52:39;10.00;;;3.60;;
42168;SDS011;27838;43.858;25.974;2023-07-20T02:55:06;11.00;;;3.60;;
42168;SDS011;27838;43.858;25.974;2023-07-20T02:57:33;8.98;;;3.33;;
42168;SDS011;27838;43.858;25.974;2023-07-20T02:59:59;10.32;;;3.88;;
42168;SDS011;27838;43.858;25.974;2023-07-20T03:02:26;15.30;;;3.47;;
42168;SDS011;27838;43.858;25.974;2023-07-20T03:04:54;7.45;;;3.00;;
42168;SDS011;27838;43.858;25.974;2023-07-20T03:07:22;14.05;;;3.85;;
42168;SDS011;27838;43.858;25.974;2023-07-20T03:09:48;13.73;;;3.47;;
42168;SDS011;27838;43.858;25.974;2023-07-20T03:12:15;16.75;;;2.97;;
42168;SDS011;27838;43.858;25.974;2023-07-20T03:14:42;18.02;;;4.00;;
42168;SDS011;27838;43.858;25.974;2023-07-20T03:17:08;19.05;;;3.67;;
42168;SDS011;27838;43.858;25.974;2023-07-20T03:19:35;15.43;;;3.90;;
42168;SDS011;27838;43.858;25.974;2023-07-20T03:22:01;11.40;;;3.78;;
42168;SDS011;27838;43.858;25.974;2023-07-20T03:24:28;13.13;;;3.38;;
42168;SDS011;27838;43.858;25.974;2023-07-20T03:26:54;15.07;;;4.13;;
42168;SDS011;27838;43.858;25.974;2023-07-20T03:29:21;11.25;;;3.45;;
42168;SDS011;27838;43.858;25.974;2023-07-20T03:31:47;13.00;;;3.25;;
42168;SDS011;27838;43.858;25.974;2023-07-20T03:34:16;11.60;;;3.60;;
42168;SDS011;27838;43.858;25.974;2023-07-20T03:36:42;12.77;;;3.35;;
42168;SDS011;27838;43.858;25.974;2023-07-20T03:39:09;21.23;;;3.85;;
42168;SDS011;27838;43.858;25.974;2023-07-20T03:41:35;12.25;;;3.63;;
42168;SDS011;27838;43.858;25.974;2023-07-20T03:44:02;12.50;;;3.80;;
42168;SDS011;27838;43.858;25.974;2023-07-20T03:46:29;15.65;;;3.13;;
42168;SDS011;27838;43.858;25.974;2023-07-20T03:48:56;8.98;;;2.83;;
42168;SDS011;27838;43.858;25.974;2023-07-20T03:51:22;13.38;;;3.35;;
42168;SDS011;27838;43.858;25.974;2023-07-20T03:53:49;11.85;;;3.15;;
42168;SDS011;27838;43.858;25.974;2023-07-20T03:56:15;9.93;;;3.28;;
42168;SDS011;27838;43.858;25.974;2023-07-20T03:58:42;11.60;;;3.65;;
42168;SDS011;27838;43.858;25.974;2023-07-20T04:01:08;11.38;;;2.78;;
42168;SDS011;27838;43.858;25.974;2023-07-20T04:03:35;11.05;;;3.17;;
42168;SDS011;27838;43.858;25.974;2023-07-20T04:06:02;13.43;;;3.28;;
42168;SDS011;27838;43.858;25.974;2023-07-20T04:08:28;20.27;;;3.22;;
42168;SDS011;27838;43.858;25.974;2023-07-20T04:10:55;13.00;;;3.22;;
42168;SDS011;27838;43.858;25.974;2023-07-20T04:13:21;15.35;;;3.67;;
42168;SDS011;27838;43.858;25.974;2023-07-20T04:15:48;8.60;;;3.60;;
42168;SDS011;27838;43.858;25.974;2023-07-20T04:18:14;6.32;;;2.55;;
42168;SDS011;27838;43.858;25.974;2023-07-20T04:20:41;15.23;;;3.63;;
42168;SDS011;27838;43.858;25.974;2023-07-20T04:23:07;9.68;;;3.15;;
42168;SDS011;27838;43.858;25.974;2023-07-20T04:25:34;14.00;;;3.85;;
42168;SDS011;27838;43.858;25.974;2023-07-20T04:28:04;8.20;;;2.88;;
42168;SDS011;27838;43.858;25.974;2023-07-20T04:30:34;16.33;;;3.38;;
42168;SDS011;27838;43.858;25.974;2023-07-20T04:33:02;10.77;;;3.10;;
42168;SDS011;27838;43.858;25.974;2023-07-20T04:38:19;9.45;;;3.38;;
42168;SDS011;27838;43.858;25.974;2023-07-20T04:40:47;8.32;;;3.28;;
42168;SDS011;27838;43.858;25.974;2023-07-20T04:43:15;8.55;;;3.28;;
42168;SDS011;27838;43.858;25.974;2023-07-20T04:45:42;13.00;;;3.03;;
42168;SDS011;27838;43.858;25.974;2023-07-20T04:48:09;15.57;;;3.83;;
42168;SDS011;27838;43.858;25.974;2023-07-20T04:50:38;10.27;;;3.50;;
42168;SDS011;27838;43.858;25.974;2023-07-20T04:53:06;14.25;;;4.45;;
42168;SDS011;27838;43.858;25.974;2023-07-20T04:55:33;18.40;;;4.97;;
42168;SDS011;27838;43.858;25.974;2023-07-20T04:58:03;9.68;;;3.42;;
42168;SDS011;27838;43.858;25.974;2023-07-20T05:00:30;12.00;;;3.10;;
42168;SDS011;27838;43.858;25.974;2023-07-20T05:02:57;6.63;;;2.88;;
42168;SDS011;27838;43.858;25.974;2023-07-20T05:05:23;9.38;;;3.13;;
42168;SDS011;27838;43.858;25.974;2023-07-20T05:07:50;12.60;;;3.17;;
42168;SDS011;27838;43.858;25.974;2023-07-20T05:10:17;8.60;;;3.40;;
42168;SDS011;27838;43.858;25.974;2023-07-20T05:12:43;10.27;;;3.47;;
42168;SDS011;27838;43.858;25.974;2023-07-20T05:15:10;14.95;;;4.32;;
42168;SDS011;27838;43.858;25.974;2023-07-20T05:17:37;17.25;;;3.70;;
42168;SDS011;27838;43.858;25.974;2023-07-20T05:20:04;21.10;;;4.63;;
42168;SDS011;27838;43.858;25.974;2023-07-20T05:22:32;25.10;;;5.60;;
42168;SDS011;27838;43.858;25.974;2023-07-20T05:24:59;19.42;;;4.70;;
42168;SDS011;27838;43.858;25.974;2023-07-20T05:27:25;20.95;;;5.22;;
42168;SDS011;27838;43.858;25.974;2023-07-20T05:29:51;17.65;;;8.10;;
42168;SDS011;27838;43.858;25.974;2023-07-20T05:32:18;31.17;;;18.98;;
42168;SDS011;27838;43.858;25.974;2023-07-20T05:34:45;18.25;;;7.82;;
42168;SDS011;27838;43.858;25.974;2023-07-20T05:37:11;21.73;;;15.65;;
42168;SDS011;27838;43.858;25.974;2023-07-20T05:39:38;18.02;;;6.75;;
42168;SDS011;27838;43.858;25.974;2023-07-20T05:42:04;13.73;;;7.03;;
42168;SDS011;27838;43.858;25.974;2023-07-20T05:44:31;36.58;;;18.13;;
42168;SDS011;27838;43.858;25.974;2023-07-20T05:46:58;16.10;;;5.82;;
42168;SDS011;27838;43.858;25.974;2023-07-20T05:49:24;17.63;;;10.98;;
42168;SDS011;27838;43.858;25.974;2023-07-20T05:51:51;13.82;;;7.75;;
42168;SDS011;27838;43.858;25.974;2023-07-20T05:54:17;7.95;;;3.83;;
42168;SDS011;27838;43.858;25.974;2023-07-20T05:56:45;10.98;;;4.70;;
42168;SDS011;27838;43.858;25.974;2023-07-20T05:59:11;9.38;;;4.07;;
42168;SDS011;27838;43.858;25.974;2023-07-20T06:01:38;8.05;;;4.53;;
42168;SDS011;27838;43.858;25.974;2023-07-20T06:04:04;8.82;;;4.30;;
42168;SDS011;27838;43.858;25.974;2023-07-20T06:06:31;24.65;;;18.08;;
42168;SDS011;27838;43.858;25.974;2023-07-20T06:08:58;22.80;;;9.82;;
42168;SDS011;27838;43.858;25.974;2023-07-20T06:11:27;18.33;;;10.23;;
42168;SDS011;27838;43.858;25.974;2023-07-20T06:13:54;24.98;;;19.75;;
42168;SDS011;27838;43.858;25.974;2023-07-20T06:16:20;24.70;;;15.82;;
42168;SDS011;27838;43.858;25.974;2023-07-20T06:18:47;13.98;;;4.72;;
42168;SDS011;27838;43.858;25.974;2023-07-20T06:21:13;22.90;;;12.57;;
42168;SDS011;27838;43.858;25.974;2023-07-20T06:23:40;13.85;;;5.35;;
42168;SDS011;27838;43.858;25.974;2023-07-20T06:26:09;17.55;;;5.63;;
42168;SDS011;27838;43.858;25.974;2023-07-20T06:28:35;12.50;;;3.97;;
42168;SDS011;27838;43.858;25.974;2023-07-20T06:31:02;10.73;;;4.20;;
42168;SDS011;27838;43.858;25.974;2023-07-20T06:33:29;12.25;;;4.90;;
42168;SDS011;27838;43.858;25.974;2023-07-20T06:35:56;9.48;;;4.20;;
42168;SDS011;27838;43.858;25.974;2023-07-20T06:38:23;14.48;;;4.93;;
42168;SDS011;27838;43.858;25.974;2023-07-20T06:40:50;12.02;;;4.13;;
42168;SDS011;27838;43.858;25.974;2023-07-20T06:43:17;8.35;;;4.30;;
42168;SDS011;27838;43.858;25.974;2023-07-20T06:45:43;7.72;;;4.57;;
42168;SDS011;27838;43.858;25.974;2023-07-20T06:48:10;10.65;;;3.90;;
42168;SDS011;27838;43.858;25.974;2023-07-20T06:50:37;15.88;;;5.13;;
42168;SDS011;27838;43.858;25.974;2023-07-20T06:53:03;15.02;;;5.80;;
42168;SDS011;27838;43.858;25.974;2023-07-20T06:55:30;66.15;;;48.90;;
42168;SDS011;27838;43.858;25.974;2023-07-20T06:57:56;14.23;;;6.97;;
42168;SDS011;27838;43.858;25.974;2023-07-20T07:00:23;17.42;;;8.07;;
42168;SDS011;27838;43.858;25.974;2023-07-20T07:02:49;15.52;;;5.22;;
42168;SDS011;27838;43.858;25.974;2023-07-20T07:05:16;8.23;;;4.32;;
42168;SDS011;27838;43.858;25.974;2023-07-20T07:07:43;8.63;;;4.78;;
42168;SDS011;27838;43.858;25.974;2023-07-20T07:10:10;19.40;;;3.83;;
42168;SDS011;27838;43.858;25.974;2023-07-20T07:12:36;14.18;;;4.13;;
42168;SDS011;27838;43.858;25.974;2023-07-20T07:15:04;21.67;;;11.55;;
42168;SDS011;27838;43.858;25.974;2023-07-20T07:17:32;11.20;;;4.60;;
42168;SDS011;27838;43.858;25.974;2023-07-20T07:20:00;14.93;;;4.97;;
42168;SDS011;27838;43.858;25.974;2023-07-20T07:22:26;12.82;;;5.15;;
42168;SDS011;27838;43.858;25.974;2023-07-20T07:24:54;10.98;;;4.80;;
42168;SDS011;27838;43.858;25.974;2023-07-20T07:27:21;12.77;;;7.93;;
42168;SDS011;27838;43.858;25.974;2023-07-20T07:29:47;9.82;;;4.78;;
42168;SDS011;27838;43.858;25.974;2023-07-20T07:32:15;11.45;;;4.28;;
42168;SDS011;27838;43.858;25.974;2023-07-20T07:34:43;11.77;;;6.15;;
42168;SDS011;27838;43.858;25.974;2023-07-20T07:37:11;9.07;;;5.68;;
42168;SDS011;27838;43.858;25.974;2023-07-20T07:39:38;13.55;;;4.13;;
42168;SDS011;27838;43.858;25.974;2023-07-20T07:42:04;11.02;;;4.82;;
42168;SDS011;27838;43.858;25.974;2023-07-20T07:44:31;14.18;;;5.38;;
42168;SDS011;27838;43.858;25.974;2023-07-20T07:46:58;15.98;;;5.53;;
42168;SDS011;27838;43.858;25.974;2023-07-20T07:49:24;9.50;;;5.07;;
42168;SDS011;27838;43.858;25.974;2023-07-20T07:51:51;11.40;;;4.80;;
42168;SDS011;27838;43.858;25.974;2023-07-20T07:54:17;12.02;;;4.75;;
42168;SDS011;27838;43.858;25.974;2023-07-20T07:56:44;8.50;;;4.53;;
42168;SDS011;27838;43.858;25.974;2023-07-20T07:59:11;11.82;;;6.55;;
42168;SDS011;27838;43.858;25.974;2023-07-20T08:01:37;17.13;;;9.88;;
42168;SDS011;27838;43.858;25.974;2023-07-20T08:04:04;10.60;;;4.88;;
42168;SDS011;27838;43.858;25.974;2023-07-20T08:06:30;26.17;;;21.90;;
42168;SDS011;27838;43.858;25.974;2023-07-20T08:08:57;15.27;;;4.80;;
42168;SDS011;27838;43.858;25.974;2023-07-20T08:11:24;18.00;;;8.45;;
42168;SDS011;27838;43.858;25.974;2023-07-20T08:13:50;21.83;;;5.50;;
42168;SDS011;27838;43.858;25.974;2023-07-20T08:16:17;13.10;;;5.32;;
42168;SDS011;27838;43.858;25.974;2023-07-20T08:18:43;9.25;;;4.50;;
42168;SDS011;27838;43.858;25.974;2023-07-20T08:21:10;9.02;;;4.65;;
42168;SDS011;27838;43.858;25.974;2023-07-20T08:23:37;10.98;;;4.75;;
42168;SDS011;27838;43.858;25.974;2023-07-20T08:26:03;12.20;;;4.30;;
42168;SDS011;27838;43.858;25.974;2023-07-20T08:28:31;15.73;;;5.22;;
42168;SDS011;27838;43.858;25.974;2023-07-20T08:30:58;8.80;;;4.85;;
42168;SDS011;27838;43.858;25.974;2023-07-20T08:33:24;15.77;;;5.05;;
42168;SDS011;27838;43.858;25.974;2023-07-20T08:35:54;23.23;;;5.73;;
42168;SDS011;27838;43.858;25.974;2023-07-20T08:38:21;25.48;;;7.75;;
42168;SDS011;27838;43.858;25.974;2023-07-20T08:40:48;13.00;;;5.80;;
42168;SDS011;27838;43.858;25.974;2023-07-20T08:43:15;12.30;;;5.13;;
42168;SDS011;27838;43.858;25.974;2023-07-20T08:45:43;13.80;;;4.78;;
42168;SDS011;27838;43.858;25.974;2023-07-20T08:48:11;12.60;;;4.50;;
42168;SDS011;27838;43.858;25.974;2023-07-20T08:50:38;20.95;;;6.25;;
42168;SDS011;27838;43.858;25.974;2023-07-20T08:53:05;9.82;;;4.85;;
42168;SDS011;27838;43.858;25.974;2023-07-20T08:55:32;13.10;;;5.30;;
42168;SDS011;27838;43.858;25.974;2023-07-20T08:58:00;17.63;;;5.68;;
42168;SDS011;27838;43.858;25.974;2023-07-20T09:00:32;9.85;;;4.75;;
42168;SDS011;27838;43.858;25.974;2023-07-20T09:02:58;12.45;;;5.45;;
42168;SDS011;27838;43.858;25.974;2023-07-20T09:05:28;12.07;;;4.50;;
42168;SDS011;27838;43.858;25.974;2023-07-20T09:07:55;12.98;;;4.43;;
42168;SDS011;27838;43.858;25.974;2023-07-20T09:10:22;12.82;;;4.50;;
42168;SDS011;27838;43.858;25.974;2023-07-20T09:12:49;8.75;;;4.38;;
42168;SDS011;27838;43.858;25.974;2023-07-20T09:15:16;9.50;;;4.53;;
42168;SDS011;27838;43.858;25.974;2023-07-20T09:17:47;10.38;;;4.25;;
42168;SDS011;27838;43.858;25.974;2023-07-20T09:20:19;6.25;;;3.60;;
42168;SDS011;27838;43.858;25.974;2023-07-20T09:22:46;10.90;;;4.38;;
42168;SDS011;27838;43.858;25.974;2023-07-20T09:25:18;15.35;;;4.82;;
42168;SDS011;27838;43.858;25.974;2023-07-20T09:27:46;11.13;;;3.80;;
42168;SDS011;27838;43.858;25.974;2023-07-20T09:30:14;12.52;;;4.07;;
42168;SDS011;27838;43.858;25.974;2023-07-20T09:32:43;8.77;;;4.05;;
42168;SDS011;27838;43.858;25.974;2023-07-20T09:35:17;11.98;;;4.50;;
42168;SDS011;27838;43.858;25.974;2023-07-20T09:37:45;20.75;;;4.78;;
42168;SDS011;27838;43.858;25.974;2023-07-20T09:40:18;10.05;;;3.88;;
42168;SDS011;27838;43.858;25.974;2023-07-20T09:42:45;7.05;;;3.85;;
42168;SDS011;27838;43.858;25.974;2023-07-20T09:45:12;14.30;;;4.00;;
42168;SDS011;27838;43.858;25.974;2023-07-20T09:47:39;12.90;;;4.45;;
42168;SDS011;27838;43.858;25.974;2023-07-20T09:50:06;9.05;;;4.03;;
42168;SDS011;27838;43.858;25.974;2023-07-20T09:52:39;13.23;;;3.92;;
42168;SDS011;27838;43.858;25.974;2023-07-20T09:55:07;8.00;;;3.95;;
42168;SDS011;27838;43.858;25.974;2023-07-20T09:57:34;10.07;;;4.28;;
42168;SDS011;27838;43.858;25.974;2023-07-20T10:00:05;10.35;;;4.35;;
42168;SDS011;27838;43.858;25.974;2023-07-20T10:02:41;7.25;;;3.55;;
42168;SDS011;27838;43.858;25.974;2023-07-20T10:05:10;8.05;;;4.03;;
42168;SDS011;27838;43.858;25.974;2023-07-20T10:07:47;12.27;;;4.18;;
42168;SDS011;27838;43.858;25.974;2023-07-20T10:10:16;6.53;;;4.10;;
42168;SDS011;27838;43.858;25.974;2023-07-20T10:12:45;8.15;;;4.00;;
42168;SDS011;27838;43.858;25.974;2023-07-20T10:15:15;17.77;;;5.03;;
42168;SDS011;27838;43.858;25.974;2023-07-20T10:20:29;9.02;;;4.40;;
42168;SDS011;27838;43.858;25.974;2023-07-20T10:22:58;11.40;;;3.85;;
42168;SDS011;27838;43.858;25.974;2023-07-20T10:25:26;14.77;;;4.03;;
42168;SDS011;27838;43.858;25.974;2023-07-20T10:27:53;6.55;;;3.55;;
42168;SDS011;27838;43.858;25.974;2023-07-20T10:30:20;9.55;;;3.63;;
42168;SDS011;27838;43.858;25.974;2023-07-20T10:32:47;14.45;;;3.95;;
42168;SDS011;27838;43.858;25.974;2023-07-20T10:35:16;12.65;;;4.00;;
42168;SDS011;27838;43.858;25.974;2023-07-20T10:42:59;8.10;;;4.00;;
42168;SDS011;27838;43.858;25.974;2023-07-20T10:48:05;9.43;;;3.75;;
42168;SDS011;27838;43.858;25.974;2023-07-20T10:50:33;7.38;;;3.60;;
42168;SDS011;27838;43.858;25.974;2023-07-20T10:53:16;10.45;;;5.22;;
42168;SDS011;27838;43.858;25.974;2023-07-20T10:55:44;10.90;;;6.30;;
42168;SDS011;27838;43.858;25.974;2023-07-20T10:58:15;8.07;;;5.15;;
42168;SDS011;27838;43.858;25.974;2023-07-20T11:00:58;19.00;;;12.95;;
42168;SDS011;27838;43.858;25.974;2023-07-20T11:03:29;13.85;;;6.25;;
42168;SDS011;27838;43.858;25.974;2023-07-20T11:06:00;10.43;;;4.65;;
42168;SDS011;27838;43.858;25.974;2023-07-20T11:08:55;16.23;;;10.30;;
42168;SDS011;27838;43.858;25.974;2023-07-20T11:11:23;9.63;;;3.97;;
42168;SDS011;27838;43.858;25.974;2023-07-20T11:13:57;10.38;;;4.35;;
42168;SDS011;27838;43.858;25.974;2023-07-20T11:16:32;8.88;;;3.88;;
42168;SDS011;27838;43.858;25.974;2023-07-20T11:19:03;13.48;;;4.03;;
42168;SDS011;27838;43.858;25.974;2023-07-20T11:21:38;15.25;;;5.20;;
42168;SDS011;27838;43.858;25.974;2023-07-20T11:24:06;13.88;;;4.97;;
42168;SDS011;27838;43.858;25.974;2023-07-20T11:26:47;11.88;;;4.63;;
42168;SDS011;27838;43.858;25.974;2023-07-20T11:29:18;9.00;;;4.80;;
42168;SDS011;27838;43.858;25.974;2023-07-20T11:31:46;15.27;;;4.85;;
42168;SDS011;27838;43.858;25.974;2023-07-20T11:34:16;13.98;;;5.75;;
42168;SDS011;27838;43.858;25.974;2023-07-20T11:36:44;12.88;;;5.53;;
42168;SDS011;27838;43.858;25.974;2023-07-20T11:39:15;12.38;;;5.28;;
42168;SDS011;27838;43.858;25.974;2023-07-20T11:41:51;13.73;;;4.38;;
42168;SDS011;27838;43.858;25.974;2023-07-20T11:44:19;6.97;;;3.78;;
42168;SDS011;27838;43.858;25.974;2023-07-20T11:46:59;9.48;;;4.57;;
42168;SDS011;27838;43.858;25.974;2023-07-20T11:49:37;9.18;;;5.85;;
42168;SDS011;27838;43.858;25.974;2023-07-20T11:52:06;14.80;;;5.93;;
42168;SDS011;27838;43.858;25.974;2023-07-20T11:54:34;15.32;;;4.75;;
42168;SDS011;27838;43.858;25.974;2023-07-20T11:57:02;12.05;;;4.53;;
42168;SDS011;27838;43.858;25.974;2023-07-20T11:59:30;11.10;;;4.93;;
42168;SDS011;27838;43.858;25.974;2023-07-20T12:02:01;9.00;;;4.10;;
42168;SDS011;27838;43.858;25.974;2023-07-20T12:04:28;10.52;;;4.28;;
42168;SDS011;27838;43.858;25.974;2023-07-20T12:06:57;9.90;;;5.10;;
42168;SDS011;27838;43.858;25.974;2023-07-20T12:09:24;20.20;;;6.90;;
42168;SDS011;27838;43.858;25.974;2023-07-20T12:11:50;10.32;;;4.40;;
42168;SDS011;27838;43.858;25.974;2023-07-20T12:14:17;8.32;;;4.85;;
42168;SDS011;27838;43.858;25.974;2023-07-20T12:16:43;18.15;;;4.57;;
42168;SDS011;27838;43.858;25.974;2023-07-20T12:19:13;8.60;;;4.72;;
42168;SDS011;27838;43.858;25.974;2023-07-20T12:21:40;9.43;;;4.28;;
42168;SDS011;27838;43.858;25.974;2023-07-20T12:24:08;9.80;;;4.50;;
42168;SDS011;27838;43.858;25.974;2023-07-20T12:26:37;12.45;;;5.45;;
42168;SDS011;27838;43.858;25.974;2023-07-20T12:29:04;14.05;;;4.68;;
42168;SDS011;27838;43.858;25.974;2023-07-20T12:31:34;8.73;;;3.42;;
42168;SDS011;27838;43.858;25.974;2023-07-20T12:34:02;13.25;;;3.83;;
42168;SDS011;27838;43.858;25.974;2023-07-20T12:36:29;8.30;;;4.30;;
42168;SDS011;27838;43.858;25.974;2023-07-20T12:38:56;10.82;;;6.40;;
42168;SDS011;27838;43.858;25.974;2023-07-20T12:41:23;14.68;;;6.30;;
42168;SDS011;27838;43.858;25.974;2023-07-20T12:43:49;10.35;;;5.88;;
42168;SDS011;27838;43.858;25.974;2023-07-20T12:46:17;9.90;;;4.82;;
42168;SDS011;27838;43.858;25.974;2023-07-20T12:48:44;8.35;;;4.43;;
42168;SDS011;27838;43.858;25.974;2023-07-20T12:51:11;12.50;;;5.65;;
42168;SDS011;27838;43.858;25.974;2023-07-20T12:53:38;12.95;;;5.00;;
42168;SDS011;27838;43.858;25.974;2023-07-20T12:56:05;7.57;;;3.85;;
42168;SDS011;27838;43.858;25.974;2023-07-20T12:58:31;8.52;;;3.63;;
42168;SDS011;27838;43.858;25.974;2023-07-20T13:00:58;13.98;;;4.72;;
42168;SDS011;27838;43.858;25.974;2023-07-20T13:03:25;9.80;;;3.92;;
42168;SDS011;27838;43.858;25.974;2023-07-20T13:05:51;5.45;;;3.80;;
42168;SDS011;27838;43.858;25.974;2023-07-20T13:08:18;8.68;;;4.20;;
42168;SDS011;27838;43.858;25.974;2023-07-20T13:10:45;5.93;;;3.30;;
42168;SDS011;27838;43.858;25.974;2023-07-20T13:13:12;6.18;;;3.03;;
42168;SDS011;27838;43.858;25.974;2023-07-20T13:15:42;7.72;;;3.55;;
42168;SDS011;27838;43.858;25.974;2023-07-20T13:18:11;7.25;;;3.22;;
42168;SDS011;27838;43.858;25.974;2023-07-20T13:20:38;6.00;;;3.00;;
42168;SDS011;27838;43.858;25.974;2023-07-20T13:23:04;9.07;;;3.30;;
42168;SDS011;27838;43.858;25.974;2023-07-20T13:25:32;10.70;;;3.58;;
42168;SDS011;27838;43.858;25.974;2023-07-20T13:27:59;7.22;;;3.38;;
42168;SDS011;27838;43.858;25.974;2023-07-20T13:30:25;8.88;;;2.83;;
42168;SDS011;27838;43.858;25.974;2023-07-20T13:32:52;5.38;;;3.40;;
42168;SDS011;27838;43.858;25.974;2023-07-20T13:35:18;5.22;;;2.58;;
42168;SDS011;27838;43.858;25.974;2023-07-20T13:37:45;9.32;;;4.75;;
42168;SDS011;27838;43.858;25.974;2023-07-20T13:40:11;19.30;;;14.82;;
42168;SDS011;27838;43.858;25.974;2023-07-20T13:42:40;7.93;;;3.28;;
42168;SDS011;27838;43.858;25.974;2023-07-20T13:45:07;10.30;;;4.68;;
42168;SDS011;27838;43.858;25.974;2023-07-20T13:47:33;10.10;;;3.42;;
42168;SDS011;27838;43.858;25.974;2023-07-20T13:50:00;8.77;;;4.53;;
42168;SDS011;27838;43.858;25.974;2023-07-20T13:52:27;7.60;;;2.88;;
42168;SDS011;27838;43.858;25.974;2023-07-20T13:54:53;8.52;;;4.35;;
42168;SDS011;27838;43.858;25.974;2023-07-20T13:57:20;8.32;;;2.97;;
42168;SDS011;27838;43.858;25.974;2023-07-20T13:59:46;9.15;;;2.65;;
42168;SDS011;27838;43.858;25.974;2023-07-20T14:02:14;8.23;;;3.15;;
42168;SDS011;27838;43.858;25.974;2023-07-20T14:04:41;13.85;;;3.75;;
42168;SDS011;27838;43.858;25.974;2023-07-20T14:07:07;12.70;;;6.43;;
42168;SDS011;27838;43.858;25.974;2023-07-20T14:09:34;17.95;;;5.20;;
42168;SDS011;27838;43.858;25.974;2023-07-20T14:12:01;13.05;;;3.70;;
42168;SDS011;27838;43.858;25.974;2023-07-20T14:14:27;5.68;;;3.80;;
42168;SDS011;27838;43.858;25.974;2023-07-20T14:16:54;7.50;;;3.17;;
42168;SDS011;27838;43.858;25.974;2023-07-20T14:19:22;13.60;;;3.25;;
42168;SDS011;27838;43.858;25.974;2023-07-20T14:21:49;9.23;;;3.90;;
42168;SDS011;27838;43.858;25.974;2023-07-20T14:24:15;10.50;;;3.17;;
42168;SDS011;27838;43.858;25.974;2023-07-20T14:26:42;8.18;;;2.83;;
42168;SDS011;27838;43.858;25.974;2023-07-20T14:29:08;11.95;;;4.47;;
42168;SDS011;27838;43.858;25.974;2023-07-20T14:31:35;13.68;;;2.70;;
42168;SDS011;27838;43.858;25.974;2023-07-20T14:34:02;10.80;;;3.05;;
42168;SDS011;27838;43.858;25.974;2023-07-20T14:36:28;6.50;;;2.78;;
42168;SDS011;27838;43.858;25.974;2023-07-20T14:38:55;10.98;;;3.55;;
42168;SDS011;27838;43.858;25.974;2023-07-20T14:41:21;8.48;;;4.07;;
42168;SDS011;27838;43.858;25.974;2023-07-20T14:43:48;16.60;;;6.95;;